Pau dos Ferros, Brazil
Current Conditions -  °F | °C
As of 9:00 AM on Friday 19 Dec 2014 (Local Time) from SBMS Reporting Station
Scattered Clouds Scattered Clouds  
Wind Chill: 90°   Ceiling: Unl
Heat Index: 96°   Visibility: 6mi
Dew Point: 72°   Wind: 10mph
Humidity: 55%   Direction: 90°E
Pressure: 29.88"   Gusts: NA
Location:  6.11°S, 38.2°W
Report Text: SBMS 191200Z 09009KT 9999 SCT030 32/22 Q1012
Loading
Personal Weather Stations






























Interactive Weather Map New forecast layout! Learn more

10-Day Weather Forecast

Advertisements
Track Severe Weather on mobile